createdAt,value
2022-10-13T00:00:53.206Z,16.48
2022-10-13T00:03:21.182Z,17.33
2022-10-13T00:05:50.981Z,16.98
2022-10-13T00:08:21.344Z,17.20
2022-10-13T00:10:51.767Z,17.58
2022-10-13T00:13:24.888Z,17.33
2022-10-13T00:15:52.860Z,15.05
2022-10-13T00:18:22.187Z,17.17
2022-10-13T00:20:51.903Z,15.10
2022-10-13T00:23:19.730Z,14.70
2022-10-13T00:25:49.271Z,16.30
2022-10-13T00:28:21.075Z,15.05
2022-10-13T00:30:49.020Z,14.70
2022-10-13T00:33:17.014Z,15.75
2022-10-13T00:35:46.933Z,15.73
2022-10-13T00:38:16.495Z,13.95
2022-10-13T00:40:46.163Z,16.27
2022-10-13T00:43:23.818Z,16.40
2022-10-13T00:45:52.785Z,14.07
2022-10-13T00:48:24.769Z,15.07
2022-10-13T00:50:54.021Z,15.25
2022-10-13T00:53:24.325Z,14.70
2022-10-13T00:55:53.422Z,14.98
2022-10-13T00:58:31.207Z,14.23
2022-10-13T01:01:00.130Z,16.40
2022-10-13T01:03:28.612Z,15.93
2022-10-13T01:06:00.408Z,14.23
2022-10-13T01:08:29.973Z,16.00
2022-10-13T01:11:15.952Z,14.93
2022-10-13T01:13:52.484Z,15.10
2022-10-13T01:16:30.949Z,14.88
2022-10-13T01:19:17.316Z,16.00
2022-10-13T01:21:51.706Z,15.45
2022-10-13T01:24:39.806Z,15.48
2022-10-13T01:27:34.390Z,15.07
2022-10-13T01:30:10.445Z,15.35
2022-10-13T01:32:58.703Z,15.43
2022-10-13T01:35:39.619Z,15.15
2022-10-13T01:38:12.383Z,13.95
2022-10-13T01:40:46.071Z,14.23
2022-10-13T01:43:21.246Z,14.35
2022-10-13T01:45:55.727Z,14.35
2022-10-13T01:48:25.209Z,13.45
2022-10-13T01:50:54.881Z,13.43
2022-10-13T01:53:23.650Z,15.60
2022-10-13T01:55:56.976Z,13.32
2022-10-13T01:58:28.356Z,13.75
2022-10-13T02:01:07.231Z,13.93
2022-10-13T02:03:44.967Z,13.73
2022-10-13T02:06:21.940Z,14.18
2022-10-13T02:08:59.398Z,14.30
2022-10-13T02:11:28.916Z,14.32
2022-10-13T02:14:03.163Z,14.33
2022-10-13T02:16:37.531Z,14.00
2022-10-13T02:19:07.788Z,14.43
2022-10-13T02:21:36.919Z,14.27
2022-10-13T02:24:05.696Z,14.27
2022-10-13T02:26:34.653Z,14.27
2022-10-13T02:29:11.615Z,14.65
2022-10-13T02:31:42.211Z,15.68
2022-10-13T02:34:10.176Z,13.70
2022-10-13T02:36:39.109Z,15.05
2022-10-13T02:39:08.531Z,14.40
2022-10-13T02:41:36.889Z,14.77
2022-10-13T02:44:05.378Z,14.07
2022-10-13T02:46:43.075Z,14.02
2022-10-13T02:49:11.322Z,13.35
2022-10-13T02:51:40.378Z,15.95
2022-10-13T02:54:08.657Z,15.25
2022-10-13T02:56:36.626Z,14.73
2022-10-13T02:59:04.657Z,14.52
2022-10-13T03:01:32.881Z,15.05
2022-10-13T03:04:02.204Z,14.57
2022-10-13T03:06:30.057Z,14.80
2022-10-13T03:08:58.016Z,14.85
2022-10-13T03:11:26.286Z,15.98
2022-10-13T03:13:54.210Z,15.52
2022-10-13T03:16:22.082Z,16.20
2022-10-13T03:18:49.961Z,16.30
2022-10-13T03:21:19.203Z,15.38
2022-10-13T03:23:47.095Z,15.52
2022-10-13T03:26:15.560Z,15.93
2022-10-13T03:28:43.626Z,15.43
2022-10-13T03:31:13.696Z,16.35
2022-10-13T03:33:42.080Z,16.10
2022-10-13T03:36:11.608Z,14.80
2022-10-13T03:38:42.506Z,15.85
2022-10-13T03:41:13.834Z,14.18
2022-10-13T03:43:42.725Z,14.82
2022-10-13T03:46:13.792Z,12.77
2022-10-13T03:48:42.413Z,14.32
2022-10-13T03:51:12.741Z,14.73
2022-10-13T03:53:47.878Z,15.23
2022-10-13T03:56:18.865Z,15.55
2022-10-13T03:58:54.539Z,15.48
2022-10-13T04:01:23.924Z,16.67
2022-10-13T04:03:53.893Z,15.75
2022-10-13T04:06:22.959Z,15.40
2022-10-13T04:08:52.588Z,15.52
2022-10-13T04:11:21.043Z,15.40
2022-10-13T04:13:53.605Z,15.85
2022-10-13T04:16:24.441Z,16.05
2022-10-13T04:18:54.103Z,14.80
2022-10-13T04:21:23.067Z,16.57
2022-10-13T04:23:52.328Z,15.30
2022-10-13T04:26:22.075Z,14.77
2022-10-13T04:28:51.933Z,15.27
2022-10-13T04:31:21.979Z,14.68
2022-10-13T04:33:50.362Z,16.02
2022-10-13T04:36:19.003Z,16.08
2022-10-13T04:41:20.013Z,14.95
2022-10-13T04:43:49.523Z,14.55
2022-10-13T04:46:19.383Z,13.90
2022-10-13T04:48:47.876Z,16.73
2022-10-13T04:51:18.289Z,13.73
2022-10-13T04:53:46.407Z,15.10
2022-10-13T04:56:18.248Z,14.13
2022-10-13T04:58:47.289Z,15.27
2022-10-13T05:01:21.851Z,14.15
2022-10-13T05:03:52.282Z,14.15
2022-10-13T05:06:21.751Z,15.52
2022-10-13T05:08:50.650Z,15.07
2022-10-13T05:11:20.707Z,14.43
2022-10-13T05:13:49.506Z,15.15
2022-10-13T05:16:19.848Z,15.82
2022-10-13T05:21:18.259Z,15.35
2022-10-13T05:23:46.686Z,16.02
2022-10-13T05:26:17.230Z,16.60
2022-10-13T05:31:17.859Z,16.17
2022-10-13T05:33:46.686Z,16.45
2022-10-13T05:36:23.033Z,16.75
2022-10-13T05:38:53.179Z,16.80
2022-10-13T05:41:22.397Z,17.90
2022-10-13T05:43:54.336Z,18.77
2022-10-13T05:46:22.207Z,18.92
2022-10-13T05:48:49.998Z,17.58
2022-10-13T05:51:21.726Z,18.08
2022-10-13T05:53:57.545Z,17.27
2022-10-13T05:56:30.675Z,16.83
2022-10-13T05:59:04.147Z,16.48
2022-10-13T06:01:35.150Z,16.15
2022-10-13T06:04:05.858Z,15.23
2022-10-13T06:06:33.984Z,16.17
2022-10-13T06:09:02.358Z,16.80
2022-10-13T06:11:30.235Z,16.50
2022-10-13T06:13:58.089Z,15.77
2022-10-13T06:16:27.327Z,15.95
2022-10-13T06:18:56.246Z,15.93
2022-10-13T06:21:24.620Z,15.52
2022-10-13T06:23:52.429Z,15.68
2022-10-13T06:26:21.261Z,16.30
2022-10-13T06:28:50.579Z,16.48
2022-10-13T06:31:22.959Z,16.52
2022-10-13T06:33:52.229Z,16.00
2022-10-13T06:36:20.147Z,16.33
2022-10-13T06:38:47.978Z,16.38
2022-10-13T06:41:18.074Z,16.08
2022-10-13T06:43:46.088Z,17.30
2022-10-13T06:46:14.070Z,15.65
2022-10-13T06:48:42.023Z,15.60
2022-10-13T06:51:13.399Z,16.02
2022-10-13T06:53:41.402Z,16.23
2022-10-13T06:56:09.885Z,17.33
2022-10-13T06:58:38.496Z,16.85
2022-10-13T07:01:07.259Z,16.42
2022-10-13T07:03:35.244Z,15.55
2022-10-13T07:06:03.770Z,18.45
2022-10-13T07:08:34.074Z,17.48
2022-10-13T07:11:11.655Z,18.40
2022-10-13T07:13:46.466Z,16.73
2022-10-13T07:16:15.798Z,16.42
2022-10-13T07:18:43.811Z,17.92
2022-10-13T07:21:11.672Z,15.30
2022-10-13T07:23:41.178Z,14.38
2022-10-13T07:26:10.693Z,16.17
2022-10-13T07:28:39.088Z,15.32
2022-10-13T07:31:11.912Z,14.80
2022-10-13T07:33:39.818Z,14.93
2022-10-13T07:36:08.423Z,14.55
2022-10-13T07:38:36.372Z,15.63
2022-10-13T07:41:08.129Z,14.25
2022-10-13T07:43:36.907Z,15.88
2022-10-13T07:46:06.828Z,16.52
2022-10-13T07:48:35.674Z,17.67
2022-10-13T07:51:05.923Z,13.88
2022-10-13T07:53:35.281Z,15.25
2022-10-13T07:56:06.091Z,16.73
2022-10-13T07:58:34.610Z,17.15
2022-10-13T08:01:03.105Z,15.57
2022-10-13T08:03:31.559Z,15.45
2022-10-13T08:06:00.248Z,15.32
2022-10-13T08:08:28.707Z,16.13
2022-10-13T08:11:01.557Z,15.55
2022-10-13T08:13:30.804Z,15.82
2022-10-13T08:16:01.542Z,16.52
2022-10-13T08:18:30.016Z,17.08
2022-10-13T08:21:32.962Z,17.50
2022-10-13T08:23:50.117Z,16.40
2022-10-13T08:26:21.962Z,16.73
2022-10-13T08:29:09.501Z,15.23
2022-10-13T08:31:41.479Z,16.63
2022-10-13T08:34:09.921Z,15.95
2022-10-13T08:36:38.129Z,16.60
2022-10-13T08:39:06.205Z,15.85
2022-10-13T08:41:39.580Z,15.75
2022-10-13T08:47:13.410Z,16.13
2022-10-13T08:49:42.419Z,16.30
2022-10-13T08:52:19.117Z,16.50
2022-10-13T08:54:47.702Z,16.80
2022-10-13T08:57:16.513Z,15.35
2022-10-13T08:59:45.926Z,16.75
2022-10-13T09:02:15.639Z,16.73
2022-10-13T09:04:49.324Z,17.13
2022-10-13T09:07:22.270Z,17.58
2022-10-13T09:09:52.610Z,17.13
2022-10-13T09:15:01.510Z,16.23
2022-10-13T09:17:30.700Z,15.75
2022-10-13T09:20:01.602Z,17.73
2022-10-13T09:22:31.571Z,15.80
2022-10-13T09:25:11.107Z,16.70
2022-10-13T09:27:45.198Z,16.35
2022-10-13T09:30:27.474Z,16.42
2022-10-13T09:33:15.453Z,16.55
2022-10-13T09:35:45.646Z,16.35
2022-10-13T09:38:17.234Z,17.00
2022-10-13T09:41:00.205Z,16.15
2022-10-13T09:43:34.967Z,16.88
2022-10-13T09:46:13.271Z,15.32
2022-10-13T09:48:42.493Z,15.40
2022-10-13T09:51:31.121Z,14.85
2022-10-13T09:53:59.044Z,16.17
2022-10-13T09:56:32.640Z,16.05
2022-10-13T09:59:09.773Z,15.68
2022-10-13T10:01:46.559Z,15.63
2022-10-13T10:04:18.133Z,13.93
2022-10-13T10:06:46.917Z,12.95
2022-10-13T10:09:33.075Z,12.50
2022-10-13T10:12:02.404Z,13.07
2022-10-13T10:14:33.114Z,13.85
2022-10-13T10:17:08.666Z,14.30
2022-10-13T10:19:48.957Z,13.88
2022-10-13T10:22:26.350Z,15.35
2022-10-13T10:25:00.925Z,14.10
2022-10-13T10:27:37.719Z,13.70
2022-10-13T10:30:15.636Z,14.70
2022-10-13T10:32:53.184Z,12.48
2022-10-13T10:35:37.617Z,14.10
2022-10-13T10:38:20.219Z,13.63
2022-10-13T10:40:56.628Z,13.73
2022-10-13T10:43:38.285Z,14.30
2022-10-13T10:46:16.870Z,11.95
2022-10-13T10:48:47.869Z,12.32
2022-10-13T10:51:16.066Z,13.55
2022-10-13T10:53:55.279Z,12.30
2022-10-13T10:56:31.278Z,12.80
2022-10-13T10:59:26.051Z,13.02
2022-10-13T11:02:12.344Z,12.60
2022-10-13T11:04:44.594Z,14.90
2022-10-13T11:07:15.817Z,13.00
2022-10-13T11:10:17.536Z,13.90
2022-10-13T11:13:07.403Z,11.88
2022-10-13T11:15:43.919Z,12.45
2022-10-13T11:18:49.330Z,11.65
2022-10-13T11:21:18.698Z,11.70
2022-10-13T11:23:48.369Z,12.27
2022-10-13T11:26:41.777Z,10.88
2022-10-13T11:29:19.845Z,10.93
2022-10-13T11:31:54.179Z,11.95
2022-10-13T11:34:33.217Z,11.52
2022-10-13T11:37:18.338Z,11.60
2022-10-13T11:40:22.252Z,11.43
2022-10-13T11:43:20.062Z,10.77
2022-10-13T11:46:26.607Z,10.90
2022-10-13T11:49:18.130Z,12.65
2022-10-13T11:52:03.644Z,11.02
2022-10-13T11:54:37.639Z,10.52
2022-10-13T11:57:19.121Z,11.38
2022-10-13T11:59:48.655Z,10.07
2022-10-13T12:02:19.211Z,11.45
2022-10-13T12:05:02.436Z,10.38
2022-10-13T12:07:35.743Z,10.38
2022-10-13T12:10:09.799Z,10.35
2022-10-13T12:12:38.026Z,10.25
2022-10-13T12:15:30.993Z,9.30
2022-10-13T12:17:58.975Z,9.45
2022-10-13T12:20:32.393Z,11.85
2022-10-13T12:23:00.264Z,9.48
2022-10-13T12:25:31.135Z,9.27
2022-10-13T12:28:01.588Z,9.13
2022-10-13T12:33:00.785Z,8.30
2022-10-13T12:35:30.783Z,8.95
2022-10-13T12:38:01.894Z,8.15
2022-10-13T12:40:31.470Z,8.60
2022-10-13T12:42:59.570Z,8.03
2022-10-13T12:45:35.431Z,6.95
2022-10-13T12:48:03.289Z,7.53
2022-10-13T12:50:37.012Z,8.35
2022-10-13T12:53:15.506Z,9.75
2022-10-13T12:56:00.593Z,8.75
2022-10-13T12:58:31.445Z,8.50
2022-10-13T13:01:07.663Z,10.27
2022-10-13T13:03:38.917Z,10.18
2022-10-13T13:06:26.711Z,10.38
2022-10-13T13:09:26.916Z,10.35
2022-10-13T13:12:23.058Z,10.50
2022-10-13T13:14:54.837Z,8.73
2022-10-13T13:17:57.171Z,11.75
2022-10-13T13:20:27.987Z,10.20
2022-10-13T13:22:56.392Z,11.68
2022-10-13T13:25:25.070Z,12.48
2022-10-13T13:27:54.874Z,14.32
2022-10-13T13:30:24.657Z,11.32
2022-10-13T13:32:52.868Z,12.13
2022-10-13T13:35:20.703Z,11.32
2022-10-13T13:37:51.183Z,12.55
2022-10-13T13:42:47.714Z,10.25
2022-10-13T13:45:18.809Z,10.45
2022-10-13T13:47:47.381Z,10.82
2022-10-13T13:50:18.555Z,11.82
2022-10-13T13:52:57.369Z,11.30
2022-10-13T13:55:25.412Z,11.18
2022-10-13T13:57:53.419Z,9.85
2022-10-13T14:00:23.947Z,10.10
2022-10-13T14:02:55.951Z,9.00
2022-10-13T14:05:24.073Z,8.70
2022-10-13T14:07:54.421Z,9.57
2022-10-13T14:12:50.083Z,8.75
2022-10-13T14:15:18.086Z,9.93
2022-10-13T14:17:47.332Z,8.85
2022-10-13T14:20:15.286Z,8.82
2022-10-13T14:22:45.397Z,9.20
2022-10-13T14:25:15.373Z,10.18
2022-10-13T14:27:45.698Z,9.90
2022-10-13T14:30:15.039Z,9.90
2022-10-13T14:32:43.113Z,9.73
2022-10-13T14:35:12.705Z,9.38
2022-10-13T14:37:40.733Z,10.27
2022-10-13T14:40:09.357Z,9.25
2022-10-13T14:42:39.181Z,10.27
2022-10-13T14:45:08.267Z,10.05
2022-10-13T14:47:36.235Z,9.18
2022-10-13T14:50:04.154Z,9.15
2022-10-13T14:52:33.498Z,9.00
2022-10-13T14:55:01.326Z,10.27
2022-10-13T14:57:29.209Z,9.30
2022-10-13T15:00:01.692Z,9.13
2022-10-13T15:02:30.391Z,8.10
2022-10-13T15:04:58.879Z,10.48
2022-10-13T15:07:26.674Z,8.98
2022-10-13T15:10:11.265Z,9.77
2022-10-13T15:12:39.253Z,8.93
2022-10-13T15:15:07.732Z,9.88
2022-10-13T15:17:36.908Z,9.02
2022-10-13T15:20:05.774Z,8.77
2022-10-13T15:22:33.794Z,9.35
2022-10-13T15:25:04.428Z,9.02
2022-10-13T15:27:32.383Z,11.35
2022-10-13T15:30:00.670Z,8.85
2022-10-13T15:32:28.583Z,9.30
2022-10-13T15:35:01.859Z,10.65
2022-10-13T15:37:31.046Z,9.43
2022-10-13T15:39:58.842Z,9.48
2022-10-13T15:42:28.071Z,10.15
2022-10-13T15:45:11.785Z,9.65
2022-10-13T15:47:40.124Z,10.32
2022-10-13T15:50:09.409Z,10.98
2022-10-13T15:52:40.581Z,25.63
2022-10-13T15:55:09.515Z,24.50
2022-10-13T15:57:39.195Z,15.18
2022-10-13T16:00:09.565Z,13.53
2022-10-13T16:02:41.393Z,19.90
2022-10-13T16:05:11.551Z,15.32
2022-10-13T16:07:40.211Z,17.75
2022-10-13T16:10:10.042Z,15.82
2022-10-13T16:12:40.022Z,13.98
2022-10-13T16:15:09.423Z,11.80
2022-10-13T16:17:37.975Z,13.07
2022-10-13T16:20:07.223Z,14.82
2022-10-13T16:22:35.025Z,13.75
2022-10-13T16:25:02.858Z,17.90
2022-10-13T16:27:30.765Z,18.13
2022-10-13T16:30:00.040Z,17.75
2022-10-13T16:32:27.899Z,15.30
2022-10-13T16:34:56.400Z,14.40
2022-10-13T16:37:24.395Z,13.55
2022-10-13T16:39:52.485Z,12.75
2022-10-13T16:42:20.394Z,14.32
2022-10-13T16:48:50.292Z,13.27
2022-10-13T16:51:20.255Z,13.20
2022-10-13T16:53:49.620Z,11.88
2022-10-13T16:56:21.930Z,12.88
2022-10-13T16:58:49.915Z,12.55
2022-10-13T17:01:17.922Z,13.20
2022-10-13T17:03:46.847Z,13.77
2022-10-13T17:06:16.371Z,13.38
2022-10-13T17:08:45.418Z,13.20
2022-10-13T17:11:17.900Z,14.10
2022-10-13T17:13:46.090Z,14.45
2022-10-13T17:16:14.316Z,14.45
2022-10-13T17:18:43.741Z,15.83
2022-10-13T17:21:14.304Z,13.77
2022-10-13T17:23:48.303Z,13.95
2022-10-13T17:26:18.774Z,13.10
2022-10-13T17:28:46.729Z,14.30
2022-10-13T17:31:18.089Z,13.65
2022-10-13T17:33:47.664Z,14.65
2022-10-13T17:36:18.343Z,15.77
2022-10-13T17:38:48.725Z,15.48
2022-10-13T17:41:17.486Z,17.38
2022-10-13T17:43:49.554Z,13.75
2022-10-13T17:49:08.191Z,14.60
2022-10-13T17:51:36.182Z,14.82
2022-10-13T17:54:05.804Z,13.95
2022-10-13T17:56:33.869Z,13.47
2022-10-13T17:59:02.336Z,20.20
2022-10-13T18:01:32.520Z,14.43
2022-10-13T18:04:03.217Z,14.10
2022-10-13T18:06:37.858Z,12.68
2022-10-13T18:09:08.911Z,12.70
2022-10-13T18:14:05.799Z,11.05
2022-10-13T18:16:33.904Z,11.80
2022-10-13T18:19:01.910Z,12.77
2022-10-13T18:21:29.942Z,15.20
2022-10-13T18:23:59.351Z,16.45
2022-10-13T18:26:31.744Z,15.73
2022-10-13T18:28:59.814Z,18.60
2022-10-13T18:31:29.810Z,19.25
2022-10-13T18:34:02.560Z,21.35
2022-10-13T18:36:32.392Z,21.23
2022-10-13T18:39:04.654Z,20.52
2022-10-13T18:41:35.738Z,19.13
2022-10-13T18:44:03.972Z,17.40
2022-10-13T18:46:32.041Z,16.92
2022-10-13T18:49:00.129Z,17.75
2022-10-13T18:51:33.412Z,16.38
2022-10-13T18:54:03.783Z,16.45
2022-10-13T18:56:34.062Z,20.60
2022-10-13T18:59:02.925Z,20.58
2022-10-13T19:01:32.315Z,19.75
2022-10-13T19:04:00.875Z,20.08
2022-10-13T19:06:32.051Z,19.27
2022-10-13T19:09:01.630Z,19.33
2022-10-13T19:11:30.642Z,19.53
2022-10-13T19:14:01.050Z,17.85
2022-10-13T19:16:31.449Z,17.45
2022-10-13T19:18:59.407Z,18.70
2022-10-13T19:21:27.571Z,17.92
2022-10-13T19:23:56.116Z,17.95
2022-10-13T19:26:26.732Z,18.92
2022-10-13T19:28:55.718Z,17.63
2022-10-13T19:31:26.301Z,17.73
2022-10-13T19:36:24.059Z,16.40
2022-10-13T19:38:54.271Z,17.33
2022-10-13T19:41:22.319Z,16.65
2022-10-13T19:43:50.593Z,14.70
2022-10-13T19:46:18.468Z,14.63
2022-10-13T19:48:47.685Z,15.23
2022-10-13T19:51:15.659Z,15.10
2022-10-13T19:53:43.517Z,16.50
2022-10-13T19:56:20.567Z,17.00
2022-10-13T19:58:48.471Z,15.23
2022-10-13T20:01:18.951Z,15.00
2022-10-13T20:05:06.518Z,15.93
2022-10-13T20:07:34.523Z,15.23
2022-10-13T20:10:07.368Z,16.55
2022-10-13T20:12:39.490Z,15.82
2022-10-13T20:15:08.096Z,14.20
2022-10-13T20:17:35.999Z,20.88
2022-10-13T20:20:05.527Z,20.92
2022-10-13T20:22:34.103Z,17.83
2022-10-13T20:25:02.076Z,17.92
2022-10-13T20:27:29.867Z,19.35
2022-10-13T20:29:57.766Z,21.25
2022-10-13T20:32:26.875Z,17.23
2022-10-13T20:34:55.059Z,16.98
2022-10-13T20:37:24.573Z,15.07
2022-10-13T20:39:52.464Z,14.60
2022-10-13T20:42:20.343Z,15.80
2022-10-13T20:44:48.228Z,15.73
2022-10-13T20:47:16.048Z,14.93
2022-10-13T20:49:43.921Z,14.50
2022-10-13T20:52:11.809Z,14.35
2022-10-13T20:54:41.037Z,16.45
2022-10-13T20:57:08.869Z,15.48
2022-10-13T20:59:36.930Z,14.02
2022-10-13T21:02:04.865Z,16.23
2022-10-13T21:04:32.869Z,16.42
2022-10-13T21:07:00.767Z,17.50
2022-10-13T21:09:28.705Z,16.25
2022-10-13T21:11:58.034Z,15.38
2022-10-13T21:14:27.122Z,14.23
2022-10-13T21:16:55.300Z,14.20
2022-10-13T21:19:23.185Z,13.23
2022-10-13T21:21:51.004Z,15.15
2022-10-13T21:24:18.829Z,15.55
2022-10-13T21:26:46.672Z,14.20
2022-10-13T21:29:15.903Z,13.38
2022-10-13T21:31:43.755Z,13.85
2022-10-13T21:34:12.070Z,14.88
2022-10-13T21:36:44.136Z,14.70
2022-10-13T21:39:14.437Z,13.57
2022-10-13T21:41:42.312Z,14.13
2022-10-13T21:44:14.007Z,13.85
2022-10-13T21:46:43.425Z,14.57
2022-10-13T21:49:11.669Z,13.65
2022-10-13T21:51:41.532Z,14.07
2022-10-13T21:54:11.860Z,12.93
2022-10-13T21:56:41.246Z,13.07
2022-10-13T21:59:11.086Z,14.38
2022-10-13T22:01:39.158Z,13.90
2022-10-13T22:04:13.087Z,13.38
2022-10-13T22:06:41.289Z,14.32
2022-10-13T22:09:09.123Z,14.80
2022-10-13T22:11:38.630Z,13.13
2022-10-13T22:14:11.411Z,15.35
2022-10-13T22:16:41.761Z,15.00
2022-10-13T22:19:11.663Z,14.63
2022-10-13T22:21:41.926Z,14.65
2022-10-13T22:24:13.378Z,15.40
2022-10-13T22:26:42.114Z,14.95
2022-10-13T22:29:11.758Z,15.30
2022-10-13T22:31:39.686Z,14.83
2022-10-13T22:34:13.001Z,14.52
2022-10-13T22:36:44.707Z,14.63
2022-10-13T22:39:13.682Z,15.23
2022-10-13T22:41:41.637Z,14.90
2022-10-13T22:44:10.037Z,14.77
2022-10-13T22:46:38.923Z,15.18
2022-10-13T22:49:08.064Z,15.27
2022-10-13T22:51:37.795Z,15.02
2022-10-13T22:54:06.040Z,16.13
2022-10-13T22:56:34.998Z,16.20
2022-10-13T22:59:05.580Z,15.50
2022-10-13T23:04:01.241Z,15.60
2022-10-13T23:06:30.992Z,15.50
2022-10-13T23:09:02.969Z,15.18
2022-10-13T23:11:30.954Z,15.10
2022-10-13T23:13:58.853Z,14.80
2022-10-13T23:16:28.429Z,15.57
2022-10-13T23:18:56.719Z,16.03
2022-10-13T23:21:27.038Z,15.02
2022-10-13T23:23:56.160Z,15.30
2022-10-13T23:26:25.928Z,14.45
2022-10-13T23:28:55.611Z,15.77
2022-10-13T23:31:23.949Z,14.60
2022-10-13T23:33:52.182Z,14.55
2022-10-13T23:36:22.481Z,16.10
2022-10-13T23:41:22.483Z,16.35
2022-10-13T23:43:52.246Z,15.45
2022-10-13T23:46:20.428Z,15.90
2022-10-13T23:48:48.268Z,16.35
2022-10-13T23:51:18.078Z,16.17
2022-10-13T23:53:46.725Z,15.98
2022-10-13T23:56:16.296Z,15.55
2022-10-13T23:58:45.697Z,14.32
